sensor_id;sensor_type;location;lat;lon;timestamp;temperature;humidity
68251;DHT22;55066;51.560;4.642;2023-03-04T00:01:47;5.73;90.60
68251;DHT22;55066;51.560;4.642;2023-03-04T00:04:15;5.80;90.50
68251;DHT22;55066;51.560;4.642;2023-03-04T00:06:40;5.91;90.56
68251;DHT22;55066;51.560;4.642;2023-03-04T00:09:06;5.81;90.34
68251;DHT22;55066;51.560;4.642;2023-03-04T00:11:31;5.74;90.19
68251;DHT22;55066;51.560;4.642;2023-03-04T00:13:57;5.76;89.04
68251;DHT22;55066;51.560;4.642;2023-03-04T00:16:24;5.67;88.90
68251;DHT22;55066;51.560;4.642;2023-03-04T00:18:56;5.76;89.09
68251;DHT22;55066;51.560;4.642;2023-03-04T00:21:22;5.73;88.15
68251;DHT22;55066;51.560;4.642;2023-03-04T00:23:48;5.79;89.01
68251;DHT22;55066;51.560;4.642;2023-03-04T00:26:14;5.89;91.30
68251;DHT22;55066;51.560;4.642;2023-03-04T00:28:41;5.85;88.78
68251;DHT22;55066;51.560;4.642;2023-03-04T00:31:07;5.80;87.97
68251;DHT22;55066;51.560;4.642;2023-03-04T00:33:32;5.83;88.63
68251;DHT22;55066;51.560;4.642;2023-03-04T00:35:59;5.87;89.90
68251;DHT22;55066;51.560;4.642;2023-03-04T00:38:25;5.94;89.79
68251;DHT22;55066;51.560;4.642;2023-03-04T00:40:50;5.81;89.10
68251;DHT22;55066;51.560;4.642;2023-03-04T00:43:16;5.73;89.52
68251;DHT22;55066;51.560;4.642;2023-03-04T00:45:42;5.77;89.88
68251;DHT22;55066;51.560;4.642;2023-03-04T00:48:08;5.80;90.35
68251;DHT22;55066;51.560;4.642;2023-03-04T00:50:33;5.79;90.22
68251;DHT22;55066;51.560;4.642;2023-03-04T00:52:59;5.86;90.14
68251;DHT22;55066;51.560;4.642;2023-03-04T00:55:26;5.85;89.43
68251;DHT22;55066;51.560;4.642;2023-03-04T00:57:51;5.71;88.89
68251;DHT22;55066;51.560;4.642;2023-03-04T01:00:17;5.67;88.21
68251;DHT22;55066;51.560;4.642;2023-03-04T01:02:42;5.80;89.97
68251;DHT22;55066;51.560;4.642;2023-03-04T01:05:08;5.76;89.82
68251;DHT22;55066;51.560;4.642;2023-03-04T01:07:34;5.70;87.55
68251;DHT22;55066;51.560;4.642;2023-03-04T01:09:59;5.69;87.75
68251;DHT22;55066;51.560;4.642;2023-03-04T01:12:25;5.71;89.35
68251;DHT22;55066;51.560;4.642;2023-03-04T01:14:50;5.70;88.76
68251;DHT22;55066;51.560;4.642;2023-03-04T01:17:16;5.69;88.42
68251;DHT22;55066;51.560;4.642;2023-03-04T01:19:42;5.67;87.89
68251;DHT22;55066;51.560;4.642;2023-03-04T01:22:10;5.69;88.40
68251;DHT22;55066;51.560;4.642;2023-03-04T01:24:37;5.70;90.18
68251;DHT22;55066;51.560;4.642;2023-03-04T01:27:04;5.85;90.00
68251;DHT22;55066;51.560;4.642;2023-03-04T01:29:30;5.71;88.52
68251;DHT22;55066;51.560;4.642;2023-03-04T01:31:55;5.62;88.71
68251;DHT22;55066;51.560;4.642;2023-03-04T01:34:21;5.67;88.65
68251;DHT22;55066;51.560;4.642;2023-03-04T01:36:46;5.62;89.39
68251;DHT22;55066;51.560;4.642;2023-03-04T01:39:12;5.59;89.02
68251;DHT22;55066;51.560;4.642;2023-03-04T01:41:37;5.60;89.28
68251;DHT22;55066;51.560;4.642;2023-03-04T01:44:03;5.65;90.96
68251;DHT22;55066;51.560;4.642;2023-03-04T01:46:29;5.59;89.23
68251;DHT22;55066;51.560;4.642;2023-03-04T01:48:56;5.63;90.61
68251;DHT22;55066;51.560;4.642;2023-03-04T01:51:22;5.58;90.80
68251;DHT22;55066;51.560;4.642;2023-03-04T01:53:49;5.65;90.43
68251;DHT22;55066;51.560;4.642;2023-03-04T01:56:24;5.67;89.82
68251;DHT22;55066;51.560;4.642;2023-03-04T02:01:39;5.63;90.18
68251;DHT22;55066;51.560;4.642;2023-03-04T02:04:07;5.55;89.61
68251;DHT22;55066;51.560;4.642;2023-03-04T02:06:39;5.58;89.49
68251;DHT22;55066;51.560;4.642;2023-03-04T02:09:05;5.52;89.54
68251;DHT22;55066;51.560;4.642;2023-03-04T02:11:32;5.53;89.96
68251;DHT22;55066;51.560;4.642;2023-03-04T02:13:58;5.56;90.76
68251;DHT22;55066;51.560;4.642;2023-03-04T02:16:24;5.56;89.55
68251;DHT22;55066;51.560;4.642;2023-03-04T02:18:50;5.58;89.82
68251;DHT22;55066;51.560;4.642;2023-03-04T02:21:27;5.58;90.65
68251;DHT22;55066;51.560;4.642;2023-03-04T02:23:56;5.51;90.67
68251;DHT22;55066;51.560;4.642;2023-03-04T02:26:27;5.56;91.87
68251;DHT22;55066;51.560;4.642;2023-03-04T02:28:55;5.66;91.40
68251;DHT22;55066;51.560;4.642;2023-03-04T02:31:26;5.58;91.06
68251;DHT22;55066;51.560;4.642;2023-03-04T02:33:53;5.51;91.33
68251;DHT22;55066;51.560;4.642;2023-03-04T02:36:21;5.51;91.59
68251;DHT22;55066;51.560;4.642;2023-03-04T02:38:49;5.55;91.33
68251;DHT22;55066;51.560;4.642;2023-03-04T02:41:18;5.55;92.44
68251;DHT22;55066;51.560;4.642;2023-03-04T02:43:45;5.56;91.28
68251;DHT22;55066;51.560;4.642;2023-03-04T02:46:12;5.55;92.01
68251;DHT22;55066;51.560;4.642;2023-03-04T02:48:40;5.53;91.60
68251;DHT22;55066;51.560;4.642;2023-03-04T02:51:05;5.55;91.05
68251;DHT22;55066;51.560;4.642;2023-03-04T02:53:31;5.55;90.50
68251;DHT22;55066;51.560;4.642;2023-03-04T02:55:57;5.55;90.92
68251;DHT22;55066;51.560;4.642;2023-03-04T02:58:24;5.52;90.54
68251;DHT22;55066;51.560;4.642;2023-03-04T03:00:50;5.49;91.06
68251;DHT22;55066;51.560;4.642;2023-03-04T03:03:16;5.48;92.10
68251;DHT22;55066;51.560;4.642;2023-03-04T03:05:42;5.46;91.16
68251;DHT22;55066;51.560;4.642;2023-03-04T03:08:07;5.52;92.36
68251;DHT22;55066;51.560;4.642;2023-03-04T03:10:33;5.51;91.79
68251;DHT22;55066;51.560;4.642;2023-03-04T03:12:59;5.39;91.43
68251;DHT22;55066;51.560;4.642;2023-03-04T03:15:24;5.46;92.60
68251;DHT22;55066;51.560;4.642;2023-03-04T03:17:50;5.46;91.56
68251;DHT22;55066;51.560;4.642;2023-03-04T03:20:16;5.53;91.59
68251;DHT22;55066;51.560;4.642;2023-03-04T03:22:41;5.46;91.42
68251;DHT22;55066;51.560;4.642;2023-03-04T03:25:09;5.53;92.27
68251;DHT22;55066;51.560;4.642;2023-03-04T03:27:36;5.53;90.58
68251;DHT22;55066;51.560;4.642;2023-03-04T03:30:02;5.46;90.89
68251;DHT22;55066;51.560;4.642;2023-03-04T03:32:28;5.46;92.75
68251;DHT22;55066;51.560;4.642;2023-03-04T03:34:53;5.48;91.07
68251;DHT22;55066;51.560;4.642;2023-03-04T03:37:19;5.58;91.90
68251;DHT22;55066;51.560;4.642;2023-03-04T03:39:44;5.59;92.05
68251;DHT22;55066;51.560;4.642;2023-03-04T03:42:10;5.59;91.61
68251;DHT22;55066;51.560;4.642;2023-03-04T03:44:35;5.59;91.81
68251;DHT22;55066;51.560;4.642;2023-03-04T03:47:01;5.56;91.96
68251;DHT22;55066;51.560;4.642;2023-03-04T03:49:28;5.59;92.09
68251;DHT22;55066;51.560;4.642;2023-03-04T03:51:53;5.59;91.51
68251;DHT22;55066;51.560;4.642;2023-03-04T03:54:20;5.60;91.46
68251;DHT22;55066;51.560;4.642;2023-03-04T03:56:46;5.67;91.72
68251;DHT22;55066;51.560;4.642;2023-03-04T03:59:11;5.62;91.54
68251;DHT22;55066;51.560;4.642;2023-03-04T04:01:36;5.63;90.16
68251;DHT22;55066;51.560;4.642;2023-03-04T04:04:02;5.59;89.92
68251;DHT22;55066;51.560;4.642;2023-03-04T04:06:27;5.59;89.87
68251;DHT22;55066;51.560;4.642;2023-03-04T04:08:53;5.69;90.73
68251;DHT22;55066;51.560;4.642;2023-03-04T04:11:18;5.67;90.06
68251;DHT22;55066;51.560;4.642;2023-03-04T04:13:44;5.69;90.78
68251;DHT22;55066;51.560;4.642;2023-03-04T04:16:10;5.69;89.84
68251;DHT22;55066;51.560;4.642;2023-03-04T04:18:36;5.71;90.11
68251;DHT22;55066;51.560;4.642;2023-03-04T04:21:02;5.63;88.17
68251;DHT22;55066;51.560;4.642;2023-03-04T04:23:28;5.65;90.37
68251;DHT22;55066;51.560;4.642;2023-03-04T04:25:54;5.65;89.83
68251;DHT22;55066;51.560;4.642;2023-03-04T04:28:20;5.67;90.90
68251;DHT22;55066;51.560;4.642;2023-03-04T04:30:45;5.69;90.99
68251;DHT22;55066;51.560;4.642;2023-03-04T04:33:11;5.56;89.87
68251;DHT22;55066;51.560;4.642;2023-03-04T04:35:37;5.65;91.05
68251;DHT22;55066;51.560;4.642;2023-03-04T04:38:04;5.71;90.33
68251;DHT22;55066;51.560;4.642;2023-03-04T04:40:29;5.71;91.81
68251;DHT22;55066;51.560;4.642;2023-03-04T04:42:55;5.67;91.18
68251;DHT22;55066;51.560;4.642;2023-03-04T04:45:21;5.60;90.68
68251;DHT22;55066;51.560;4.642;2023-03-04T04:47:49;5.65;90.65
68251;DHT22;55066;51.560;4.642;2023-03-04T04:50:15;5.63;91.44
68251;DHT22;55066;51.560;4.642;2023-03-04T04:52:40;5.56;91.19
68251;DHT22;55066;51.560;4.642;2023-03-04T04:55:06;5.53;91.05
68251;DHT22;55066;51.560;4.642;2023-03-04T04:57:32;5.62;91.63
68251;DHT22;55066;51.560;4.642;2023-03-04T04:59:58;5.63;91.86
68251;DHT22;55066;51.560;4.642;2023-03-04T05:02:23;5.79;91.89
68251;DHT22;55066;51.560;4.642;2023-03-04T05:04:49;5.67;91.13
68251;DHT22;55066;51.560;4.642;2023-03-04T05:07:14;5.67;91.65
68251;DHT22;55066;51.560;4.642;2023-03-04T05:09:39;5.62;91.67
68251;DHT22;55066;51.560;4.642;2023-03-04T05:12:05;5.65;90.82
68251;DHT22;55066;51.560;4.642;2023-03-04T05:14:30;5.69;90.79
68251;DHT22;55066;51.560;4.642;2023-03-04T05:16:56;5.66;90.22
68251;DHT22;55066;51.560;4.642;2023-03-04T05:19:22;5.67;90.13
68251;DHT22;55066;51.560;4.642;2023-03-04T05:21:47;5.69;89.93
68251;DHT22;55066;51.560;4.642;2023-03-04T05:24:13;5.53;89.89
68251;DHT22;55066;51.560;4.642;2023-03-04T05:26:38;5.55;91.13
68251;DHT22;55066;51.560;4.642;2023-03-04T05:29:04;5.63;91.56
68251;DHT22;55066;51.560;4.642;2023-03-04T05:31:29;5.74;90.61
68251;DHT22;55066;51.560;4.642;2023-03-04T05:33:55;5.70;90.13
68251;DHT22;55066;51.560;4.642;2023-03-04T05:36:20;5.69;90.31
68251;DHT22;55066;51.560;4.642;2023-03-04T05:38:45;5.62;90.42
68251;DHT22;55066;51.560;4.642;2023-03-04T05:41:11;5.56;90.31
68251;DHT22;55066;51.560;4.642;2023-03-04T05:43:36;5.58;90.28
68251;DHT22;55066;51.560;4.642;2023-03-04T05:46:12;5.55;90.76
68251;DHT22;55066;51.560;4.642;2023-03-04T05:48:37;5.53;91.93
68251;DHT22;55066;51.560;4.642;2023-03-04T05:51:03;5.59;91.44
68251;DHT22;55066;51.560;4.642;2023-03-04T05:53:29;5.58;91.35
68251;DHT22;55066;51.560;4.642;2023-03-04T05:55:54;5.48;91.57
68251;DHT22;55066;51.560;4.642;2023-03-04T05:58:20;5.51;91.70
68251;DHT22;55066;51.560;4.642;2023-03-04T06:00:46;5.51;91.71
68251;DHT22;55066;51.560;4.642;2023-03-04T06:03:20;5.55;91.89
68251;DHT22;55066;51.560;4.642;2023-03-04T06:05:46;5.53;91.54
68251;DHT22;55066;51.560;4.642;2023-03-04T06:08:12;5.55;91.50
68251;DHT22;55066;51.560;4.642;2023-03-04T06:10:39;5.56;91.81
68251;DHT22;55066;51.560;4.642;2023-03-04T06:13:05;5.56;92.04
68251;DHT22;55066;51.560;4.642;2023-03-04T06:15:32;5.49;91.40
68251;DHT22;55066;51.560;4.642;2023-03-04T06:17:58;5.55;92.09
68251;DHT22;55066;51.560;4.642;2023-03-04T06:20:23;5.62;91.43
68251;DHT22;55066;51.560;4.642;2023-03-04T06:22:48;5.59;91.47
68251;DHT22;55066;51.560;4.642;2023-03-04T06:25:14;5.59;92.07
68251;DHT22;55066;51.560;4.642;2023-03-04T06:27:40;5.60;91.49
68251;DHT22;55066;51.560;4.642;2023-03-04T06:30:06;5.45;91.01
68251;DHT22;55066;51.560;4.642;2023-03-04T06:32:31;5.46;91.62
68251;DHT22;55066;51.560;4.642;2023-03-04T06:34:57;5.55;91.61
68251;DHT22;55066;51.560;4.642;2023-03-04T06:37:22;5.65;91.00
68251;DHT22;55066;51.560;4.642;2023-03-04T06:39:48;5.58;90.96
68251;DHT22;55066;51.560;4.642;2023-03-04T06:42:13;5.59;91.70
68251;DHT22;55066;51.560;4.642;2023-03-04T06:44:39;5.55;91.68
68251;DHT22;55066;51.560;4.642;2023-03-04T06:47:05;5.52;91.96
68251;DHT22;55066;51.560;4.642;2023-03-04T06:49:31;5.51;92.04
68251;DHT22;55066;51.560;4.642;2023-03-04T06:51:56;5.48;92.20
68251;DHT22;55066;51.560;4.642;2023-03-04T06:54:21;5.55;92.06
68251;DHT22;55066;51.560;4.642;2023-03-04T06:56:47;5.60;91.67
68251;DHT22;55066;51.560;4.642;2023-03-04T06:59:12;5.51;91.51
68251;DHT22;55066;51.560;4.642;2023-03-04T07:01:38;5.52;92.01
68251;DHT22;55066;51.560;4.642;2023-03-04T07:04:03;5.42;92.15
68251;DHT22;55066;51.560;4.642;2023-03-04T07:06:29;5.49;92.41
68251;DHT22;55066;51.560;4.642;2023-03-04T07:08:55;5.51;92.54
68251;DHT22;55066;51.560;4.642;2023-03-04T07:11:21;5.56;92.78
68251;DHT22;55066;51.560;4.642;2023-03-04T07:13:47;5.62;92.60
68251;DHT22;55066;51.560;4.642;2023-03-04T07:16:16;5.58;92.63
68251;DHT22;55066;51.560;4.642;2023-03-04T07:18:44;5.59;92.58
68251;DHT22;55066;51.560;4.642;2023-03-04T07:21:10;5.59;92.81
68251;DHT22;55066;51.560;4.642;2023-03-04T07:23:35;5.66;92.69
68251;DHT22;55066;51.560;4.642;2023-03-04T07:26:01;5.77;92.27
68251;DHT22;55066;51.560;4.642;2023-03-04T07:28:27;5.80;92.20
68251;DHT22;55066;51.560;4.642;2023-03-04T07:30:53;5.74;92.79
68251;DHT22;55066;51.560;4.642;2023-03-04T07:33:18;5.83;92.54
68251;DHT22;55066;51.560;4.642;2023-03-04T07:35:44;5.90;92.17
68251;DHT22;55066;51.560;4.642;2023-03-04T07:38:09;5.93;92.30
68251;DHT22;55066;51.560;4.642;2023-03-04T07:40:35;5.97;91.86
68251;DHT22;55066;51.560;4.642;2023-03-04T07:43:00;6.08;91.61
68251;DHT22;55066;51.560;4.642;2023-03-04T07:45:27;6.00;92.62
68251;DHT22;55066;51.560;4.642;2023-03-04T07:47:52;6.04;92.79
68251;DHT22;55066;51.560;4.642;2023-03-04T07:50:19;6.06;92.33
68251;DHT22;55066;51.560;4.642;2023-03-04T07:52:46;6.07;92.76
68251;DHT22;55066;51.560;4.642;2023-03-04T07:55:15;6.11;92.39
68251;DHT22;55066;51.560;4.642;2023-03-04T07:57:41;6.06;92.37
68251;DHT22;55066;51.560;4.642;2023-03-04T08:00:11;6.04;92.87
68251;DHT22;55066;51.560;4.642;2023-03-04T08:02:40;6.10;92.28
68251;DHT22;55066;51.560;4.642;2023-03-04T08:05:06;5.98;93.49
68251;DHT22;55066;51.560;4.642;2023-03-04T08:07:31;5.98;93.87
68251;DHT22;55066;51.560;4.642;2023-03-04T08:09:57;5.96;93.37
68251;DHT22;55066;51.560;4.642;2023-03-04T08:12:22;5.89;93.82
68251;DHT22;55066;51.560;4.642;2023-03-04T08:14:52;6.01;92.80
68251;DHT22;55066;51.560;4.642;2023-03-04T08:17:18;6.00;94.01
68251;DHT22;55066;51.560;4.642;2023-03-04T08:19:44;6.10;93.47
68251;DHT22;55066;51.560;4.642;2023-03-04T08:22:11;6.14;93.92
68251;DHT22;55066;51.560;4.642;2023-03-04T08:24:37;6.25;93.59
68251;DHT22;55066;51.560;4.642;2023-03-04T08:27:02;6.29;94.13
68251;DHT22;55066;51.560;4.642;2023-03-04T08:29:28;6.38;93.15
68251;DHT22;55066;51.560;4.642;2023-03-04T08:31:54;6.55;92.25
68251;DHT22;55066;51.560;4.642;2023-03-04T08:34:22;6.53;92.30
68251;DHT22;55066;51.560;4.642;2023-03-04T08:36:48;6.61;91.59
68251;DHT22;55066;51.560;4.642;2023-03-04T08:39:15;6.59;93.16
68251;DHT22;55066;51.560;4.642;2023-03-04T08:41:41;6.71;92.71
68251;DHT22;55066;51.560;4.642;2023-03-04T08:44:07;6.82;91.29
68251;DHT22;55066;51.560;4.642;2023-03-04T08:46:35;6.99;90.82
68251;DHT22;55066;51.560;4.642;2023-03-04T08:49:01;7.12;90.39
68251;DHT22;55066;51.560;4.642;2023-03-04T08:51:27;7.28;90.09
68251;DHT22;55066;51.560;4.642;2023-03-04T08:53:53;7.32;89.94
68251;DHT22;55066;51.560;4.642;2023-03-04T08:56:19;7.21;91.04
68251;DHT22;55066;51.560;4.642;2023-03-04T08:58:44;7.21;90.65
68251;DHT22;55066;51.560;4.642;2023-03-04T09:01:11;7.24;90.79
68251;DHT22;55066;51.560;4.642;2023-03-04T09:03:39;7.34;91.74
68251;DHT22;55066;51.560;4.642;2023-03-04T09:06:05;7.58;90.04
68251;DHT22;55066;51.560;4.642;2023-03-04T09:08:33;7.48;91.65
68251;DHT22;55066;51.560;4.642;2023-03-04T09:10:59;7.61;91.69
68251;DHT22;55066;51.560;4.642;2023-03-04T09:13:26;7.55;90.94
68251;DHT22;55066;51.560;4.642;2023-03-04T09:15:52;7.48;90.99
68251;DHT22;55066;51.560;4.642;2023-03-04T09:18:19;7.48;91.03
68251;DHT22;55066;51.560;4.642;2023-03-04T09:20:46;7.52;90.88
68251;DHT22;55066;51.560;4.642;2023-03-04T09:23:12;7.75;90.41
68251;DHT22;55066;51.560;4.642;2023-03-04T09:25:38;7.89;89.95
68251;DHT22;55066;51.560;4.642;2023-03-04T09:28:05;7.97;89.85
68251;DHT22;55066;51.560;4.642;2023-03-04T09:30:31;8.30;88.85
68251;DHT22;55066;51.560;4.642;2023-03-04T09:32:56;8.51;88.43
68251;DHT22;55066;51.560;4.642;2023-03-04T09:35:22;8.56;87.91
68251;DHT22;55066;51.560;4.642;2023-03-04T09:37:49;8.55;88.33
68251;DHT22;55066;51.560;4.642;2023-03-04T09:40:24;8.45;88.24
68251;DHT22;55066;51.560;4.642;2023-03-04T09:42:53;8.21;88.41
68251;DHT22;55066;51.560;4.642;2023-03-04T09:45:25;8.38;88.17
68251;DHT22;55066;51.560;4.642;2023-03-04T09:47:53;8.52;88.17
68251;DHT22;55066;51.560;4.642;2023-03-04T09:50:20;8.32;88.05
68251;DHT22;55066;51.560;4.642;2023-03-04T09:53:13;8.34;89.73
68251;DHT22;55066;51.560;4.642;2023-03-04T09:55:43;8.46;88.64
68251;DHT22;55066;51.560;4.642;2023-03-04T09:58:34;8.83;87.31
68251;DHT22;55066;51.560;4.642;2023-03-04T10:01:30;9.41;86.91
68251;DHT22;55066;51.560;4.642;2023-03-04T10:06:55;9.73;84.14
68251;DHT22;55066;51.560;4.642;2023-03-04T10:09:27;9.38;85.92
68251;DHT22;55066;51.560;4.642;2023-03-04T10:12:04;9.28;86.09
68251;DHT22;55066;51.560;4.642;2023-03-04T10:14:46;8.65;86.68
68251;DHT22;55066;51.560;4.642;2023-03-04T10:17:18;8.40;88.96
68251;DHT22;55066;51.560;4.642;2023-03-04T10:20:00;8.27;89.51
68251;DHT22;55066;51.560;4.642;2023-03-04T10:22:31;8.24;91.70
68251;DHT22;55066;51.560;4.642;2023-03-04T10:24:58;8.20;90.98
68251;DHT22;55066;51.560;4.642;2023-03-04T10:27:26;8.24;90.53
68251;DHT22;55066;51.560;4.642;2023-03-04T10:29:55;8.80;90.20
68251;DHT22;55066;51.560;4.642;2023-03-04T10:32:21;9.42;88.96
68251;DHT22;55066;51.560;4.642;2023-03-04T10:34:46;9.41;88.29
68251;DHT22;55066;51.560;4.642;2023-03-04T10:37:12;9.54;87.54
68251;DHT22;55066;51.560;4.642;2023-03-04T10:39:43;9.76;87.80
68251;DHT22;55066;51.560;4.642;2023-03-04T10:45:02;9.51;88.23
68251;DHT22;55066;51.560;4.642;2023-03-04T10:47:28;9.18;87.72
68251;DHT22;55066;51.560;4.642;2023-03-04T10:49:56;9.24;87.36
68251;DHT22;55066;51.560;4.642;2023-03-04T10:52:38;9.42;89.21
68251;DHT22;55066;51.560;4.642;2023-03-04T10:55:14;9.38;88.53
68251;DHT22;55066;51.560;4.642;2023-03-04T10:57:42;9.32;88.76
68251;DHT22;55066;51.560;4.642;2023-03-04T11:00:30;9.45;87.76
68251;DHT22;55066;51.560;4.642;2023-03-04T11:03:22;9.44;88.42
68251;DHT22;55066;51.560;4.642;2023-03-04T11:05:49;8.89;89.93
68251;DHT22;55066;51.560;4.642;2023-03-04T11:08:20;8.84;91.78
68251;DHT22;55066;51.560;4.642;2023-03-04T11:10:46;9.07;91.45
68251;DHT22;55066;51.560;4.642;2023-03-04T11:13:23;9.11;90.88
68251;DHT22;55066;51.560;4.642;2023-03-04T11:20:53;9.71;89.73
68251;DHT22;55066;51.560;4.642;2023-03-04T11:23:43;9.52;90.65
68251;DHT22;55066;51.560;4.642;2023-03-04T11:26:49;9.48;91.45
68251;DHT22;55066;51.560;4.642;2023-03-04T11:29:21;9.24;91.42
68251;DHT22;55066;51.560;4.642;2023-03-04T11:31:52;9.24;92.22
68251;DHT22;55066;51.560;4.642;2023-03-04T11:37:44;9.58;91.35
68251;DHT22;55066;51.560;4.642;2023-03-04T11:40:23;9.72;91.47
68251;DHT22;55066;51.560;4.642;2023-03-04T11:42:56;9.75;91.68
68251;DHT22;55066;51.560;4.642;2023-03-04T11:45:40;9.56;92.13
68251;DHT22;55066;51.560;4.642;2023-03-04T11:51:21;9.97;91.87
68251;DHT22;55066;51.560;4.642;2023-03-04T11:56:54;10.49;89.47
68251;DHT22;55066;51.560;4.642;2023-03-04T12:02:23;10.33;88.95
68251;DHT22;55066;51.560;4.642;2023-03-04T12:07:58;10.25;89.04
68251;DHT22;55066;51.560;4.642;2023-03-04T12:24:26;11.06;90.45
68251;DHT22;55066;51.560;4.642;2023-03-04T12:29:35;11.31;89.58
68251;DHT22;55066;51.560;4.642;2023-03-04T12:32:29;11.24;87.17
68251;DHT22;55066;51.560;4.642;2023-03-04T12:37:31;11.50;88.59
68251;DHT22;55066;51.560;4.642;2023-03-04T12:42:59;10.99;91.00
68251;DHT22;55066;51.560;4.642;2023-03-04T12:45:39;10.28;90.66
68251;DHT22;55066;51.560;4.642;2023-03-04T12:48:36;9.97;91.14
68251;DHT22;55066;51.560;4.642;2023-03-04T12:56:43;9.85;94.96
68251;DHT22;55066;51.560;4.642;2023-03-04T12:59:17;9.75;94.65
68251;DHT22;55066;51.560;4.642;2023-03-04T13:01:52;9.90;92.67
68251;DHT22;55066;51.560;4.642;2023-03-04T13:07:20;10.54;91.62
68251;DHT22;55066;51.560;4.642;2023-03-04T13:09:56;10.73;89.64
68251;DHT22;55066;51.560;4.642;2023-03-04T13:12:23;11.20;88.65
68251;DHT22;55066;51.560;4.642;2023-03-04T13:25:35;10.45;90.81
68251;DHT22;55066;51.560;4.642;2023-03-04T13:36:01;8.51;95.39
68251;DHT22;55066;51.560;4.642;2023-03-04T13:41:13;9.01;98.30
68251;DHT22;55066;51.560;4.642;2023-03-04T13:51:42;9.87;92.67
68251;DHT22;55066;51.560;4.642;2023-03-04T13:56:48;10.00;93.60
68251;DHT22;55066;51.560;4.642;2023-03-04T13:59:38;9.87;92.26
68251;DHT22;55066;51.560;4.642;2023-03-04T14:02:13;9.83;93.09
68251;DHT22;55066;51.560;4.642;2023-03-04T14:04:43;10.13;93.44
68251;DHT22;55066;51.560;4.642;2023-03-04T14:10:06;10.65;90.30
68251;DHT22;55066;51.560;4.642;2023-03-04T14:12:37;10.48;89.63
68251;DHT22;55066;51.560;4.642;2023-03-04T14:15:22;10.79;89.62
68251;DHT22;55066;51.560;4.642;2023-03-04T14:17:52;11.00;90.50
68251;DHT22;55066;51.560;4.642;2023-03-04T14:22:56;11.10;88.51
68251;DHT22;55066;51.560;4.642;2023-03-04T14:28:10;10.65;90.14
68251;DHT22;55066;51.560;4.642;2023-03-04T14:30:36;10.33;89.94
68251;DHT22;55066;51.560;4.642;2023-03-04T14:33:05;10.10;90.93
68251;DHT22;55066;51.560;4.642;2023-03-04T14:35:31;10.27;92.64
68251;DHT22;55066;51.560;4.642;2023-03-04T14:38:04;10.68;91.50
68251;DHT22;55066;51.560;4.642;2023-03-04T14:40:37;10.89;90.11
68251;DHT22;55066;51.560;4.642;2023-03-04T14:43:14;10.91;89.53
68251;DHT22;55066;51.560;4.642;2023-03-04T14:45:42;10.78;90.70
68251;DHT22;55066;51.560;4.642;2023-03-04T14:48:08;10.91;87.63
68251;DHT22;55066;51.560;4.642;2023-03-04T14:50:36;10.49;86.99
68251;DHT22;55066;51.560;4.642;2023-03-04T14:55:33;11.69;85.33
68251;DHT22;55066;51.560;4.642;2023-03-04T14:58:07;10.86;89.33
68251;DHT22;55066;51.560;4.642;2023-03-04T15:00:36;10.62;91.68
68251;DHT22;55066;51.560;4.642;2023-03-04T15:03:05;10.45;90.63
68251;DHT22;55066;51.560;4.642;2023-03-04T15:05:33;9.85;88.32
68251;DHT22;55066;51.560;4.642;2023-03-04T15:08:03;9.79;92.70
68251;DHT22;55066;51.560;4.642;2023-03-04T15:10:34;9.63;92.66
68251;DHT22;55066;51.560;4.642;2023-03-04T15:13:02;9.55;91.93
68251;DHT22;55066;51.560;4.642;2023-03-04T15:15:48;9.44;92.99
68251;DHT22;55066;51.560;4.642;2023-03-04T15:18:26;9.61;92.54
68251;DHT22;55066;51.560;4.642;2023-03-04T15:20:59;9.13;89.11
68251;DHT22;55066;51.560;4.642;2023-03-04T15:23:26;9.34;92.27
68251;DHT22;55066;51.560;4.642;2023-03-04T15:25:55;9.08;90.04
68251;DHT22;55066;51.560;4.642;2023-03-04T15:28:22;8.87;88.58
68251;DHT22;55066;51.560;4.642;2023-03-04T15:30:48;9.07;89.00
68251;DHT22;55066;51.560;4.642;2023-03-04T15:33:14;9.04;89.65
68251;DHT22;55066;51.560;4.642;2023-03-04T15:35:40;8.97;87.80
68251;DHT22;55066;51.560;4.642;2023-03-04T15:38:11;9.14;90.21
68251;DHT22;55066;51.560;4.642;2023-03-04T15:40:39;9.55;91.01
68251;DHT22;55066;51.560;4.642;2023-03-04T15:43:09;9.89;90.96
68251;DHT22;55066;51.560;4.642;2023-03-04T15:45:36;9.83;87.17
68251;DHT22;55066;51.560;4.642;2023-03-04T15:48:04;9.89;87.82
68251;DHT22;55066;51.560;4.642;2023-03-04T15:50:33;9.49;86.24
68251;DHT22;55066;51.560;4.642;2023-03-04T15:53:01;9.72;89.90
68251;DHT22;55066;51.560;4.642;2023-03-04T15:55:28;9.76;90.12
68251;DHT22;55066;51.560;4.642;2023-03-04T15:57:55;9.61;88.04
68251;DHT22;55066;51.560;4.642;2023-03-04T16:00:22;9.59;89.01
68251;DHT22;55066;51.560;4.642;2023-03-04T16:02:47;9.35;87.54
68251;DHT22;55066;51.560;4.642;2023-03-04T16:05:14;9.16;87.49
68251;DHT22;55066;51.560;4.642;2023-03-04T16:07:41;9.13;88.15
68251;DHT22;55066;51.560;4.642;2023-03-04T16:10:26;9.17;88.92
68251;DHT22;55066;51.560;4.642;2023-03-04T16:12:53;9.20;87.37
68251;DHT22;55066;51.560;4.642;2023-03-04T16:15:25;9.34;90.37
68251;DHT22;55066;51.560;4.642;2023-03-04T16:17:51;9.27;89.61
68251;DHT22;55066;51.560;4.642;2023-03-04T16:20:20;8.94;89.68
68251;DHT22;55066;51.560;4.642;2023-03-04T16:22:49;8.76;90.06
68251;DHT22;55066;51.560;4.642;2023-03-04T16:25:16;9.06;91.56
68251;DHT22;55066;51.560;4.642;2023-03-04T16:27:43;9.01;92.20
68251;DHT22;55066;51.560;4.642;2023-03-04T16:30:15;8.69;87.90
68251;DHT22;55066;51.560;4.642;2023-03-04T16:32:41;8.66;87.72
68251;DHT22;55066;51.560;4.642;2023-03-04T16:35:06;8.59;90.86
68251;DHT22;55066;51.560;4.642;2023-03-04T16:37:32;8.84;91.93
68251;DHT22;55066;51.560;4.642;2023-03-04T16:39:58;8.84;88.87
68251;DHT22;55066;51.560;4.642;2023-03-04T16:42:24;8.55;87.82
68251;DHT22;55066;51.560;4.642;2023-03-04T16:44:52;8.96;91.25
68251;DHT22;55066;51.560;4.642;2023-03-04T16:47:18;8.79;90.67
68251;DHT22;55066;51.560;4.642;2023-03-04T16:49:43;8.69;92.00
68251;DHT22;55066;51.560;4.642;2023-03-04T16:52:19;8.31;89.99
68251;DHT22;55066;51.560;4.642;2023-03-04T16:54:47;8.30;89.90
68251;DHT22;55066;51.560;4.642;2023-03-04T16:57:12;8.31;89.22
68251;DHT22;55066;51.560;4.642;2023-03-04T16:59:38;8.49;91.27
68251;DHT22;55066;51.560;4.642;2023-03-04T17:02:27;8.27;87.50
68251;DHT22;55066;51.560;4.642;2023-03-04T17:04:53;8.27;92.26
68251;DHT22;55066;51.560;4.642;2023-03-04T17:07:21;8.14;87.92
68251;DHT22;55066;51.560;4.642;2023-03-04T17:09:47;8.13;90.74
68251;DHT22;55066;51.560;4.642;2023-03-04T17:12:14;8.20;90.33
68251;DHT22;55066;51.560;4.642;2023-03-04T17:14:40;8.34;95.39
68251;DHT22;55066;51.560;4.642;2023-03-04T17:17:06;8.27;90.44
68251;DHT22;55066;51.560;4.642;2023-03-04T17:19:32;8.44;94.74
68251;DHT22;55066;51.560;4.642;2023-03-04T17:21:59;8.17;93.73
68251;DHT22;55066;51.560;4.642;2023-03-04T17:24:25;7.97;93.24
68251;DHT22;55066;51.560;4.642;2023-03-04T17:26:51;7.91;92.02
68251;DHT22;55066;51.560;4.642;2023-03-04T17:29:16;8.05;92.46
68251;DHT22;55066;51.560;4.642;2023-03-04T17:31:42;7.76;91.87
68251;DHT22;55066;51.560;4.642;2023-03-04T17:34:08;7.77;91.31